sensor_id;sensor_type;location;lat;lon;timestamp;P1;durP1;ratioP1;P2;durP2;ratioP2
53207;SDS011;39093;52.788;6.940;2023-04-29T00:00:16;45.67;;;32.42;;
53207;SDS011;39093;52.788;6.940;2023-04-29T00:02:43;45.42;;;32.42;;
53207;SDS011;39093;52.788;6.940;2023-04-29T00:05:10;43.85;;;31.63;;
53207;SDS011;39093;52.788;6.940;2023-04-29T00:07:37;42.50;;;32.78;;
53207;SDS011;39093;52.788;6.940;2023-04-29T00:10:04;43.72;;;32.67;;
53207;SDS011;39093;52.788;6.940;2023-04-29T00:12:31;44.50;;;32.10;;
53207;SDS011;39093;52.788;6.940;2023-04-29T00:14:58;45.10;;;32.13;;
53207;SDS011;39093;52.788;6.940;2023-04-29T00:17:28;48.80;;;31.75;;
53207;SDS011;39093;52.788;6.940;2023-04-29T00:19:55;49.92;;;33.17;;
53207;SDS011;39093;52.788;6.940;2023-04-29T00:22:21;40.90;;;30.48;;
53207;SDS011;39093;52.788;6.940;2023-04-29T00:24:48;42.35;;;31.20;;
53207;SDS011;39093;52.788;6.940;2023-04-29T00:27:15;43.88;;;30.65;;
53207;SDS011;39093;52.788;6.940;2023-04-29T00:29:43;42.00;;;31.40;;
53207;SDS011;39093;52.788;6.940;2023-04-29T00:32:10;45.95;;;32.00;;
53207;SDS011;39093;52.788;6.940;2023-04-29T00:34:37;46.05;;;30.90;;
53207;SDS011;39093;52.788;6.940;2023-04-29T00:37:04;42.60;;;30.42;;
53207;SDS011;39093;52.788;6.940;2023-04-29T00:39:31;47.90;;;30.73;;
53207;SDS011;39093;52.788;6.940;2023-04-29T00:41:58;39.85;;;28.80;;
53207;SDS011;39093;52.788;6.940;2023-04-29T00:44:25;40.97;;;28.88;;
53207;SDS011;39093;52.788;6.940;2023-04-29T00:46:52;42.70;;;30.45;;
53207;SDS011;39093;52.788;6.940;2023-04-29T00:49:19;43.60;;;28.98;;
53207;SDS011;39093;52.788;6.940;2023-04-29T00:51:47;42.25;;;30.48;;
53207;SDS011;39093;52.788;6.940;2023-04-29T00:54:15;45.03;;;30.42;;
53207;SDS011;39093;52.788;6.940;2023-04-29T00:56:44;48.20;;;32.97;;
53207;SDS011;39093;52.788;6.940;2023-04-29T00:59:12;47.75;;;32.20;;
53207;SDS011;39093;52.788;6.940;2023-04-29T01:01:40;51.92;;;33.08;;
53207;SDS011;39093;52.788;6.940;2023-04-29T01:04:07;57.60;;;35.45;;
53207;SDS011;39093;52.788;6.940;2023-04-29T01:09:25;55.65;;;35.65;;
53207;SDS011;39093;52.788;6.940;2023-04-29T01:12:20;56.47;;;36.70;;
53207;SDS011;39093;52.788;6.940;2023-04-29T01:15:05;52.80;;;36.45;;
53207;SDS011;39093;52.788;6.940;2023-04-29T01:17:41;60.75;;;36.92;;
53207;SDS011;39093;52.788;6.940;2023-04-29T01:20:14;53.92;;;36.70;;
53207;SDS011;39093;52.788;6.940;2023-04-29T01:22:41;51.55;;;35.13;;
53207;SDS011;39093;52.788;6.940;2023-04-29T01:25:09;62.75;;;36.60;;
53207;SDS011;39093;52.788;6.940;2023-04-29T01:27:39;54.10;;;35.42;;
53207;SDS011;39093;52.788;6.940;2023-04-29T01:35:59;50.35;;;34.17;;
53207;SDS011;39093;52.788;6.940;2023-04-29T01:44:11;52.95;;;32.38;;
53207;SDS011;39093;52.788;6.940;2023-04-29T01:46:46;49.58;;;31.85;;
53207;SDS011;39093;52.788;6.940;2023-04-29T01:49:20;48.65;;;31.20;;
53207;SDS011;39093;52.788;6.940;2023-04-29T01:51:49;47.72;;;30.77;;
53207;SDS011;39093;52.788;6.940;2023-04-29T01:54:16;51.95;;;31.73;;
53207;SDS011;39093;52.788;6.940;2023-04-29T01:56:43;53.28;;;30.67;;
53207;SDS011;39093;52.788;6.940;2023-04-29T01:59:11;53.88;;;31.13;;
53207;SDS011;39093;52.788;6.940;2023-04-29T02:01:38;55.30;;;32.03;;
53207;SDS011;39093;52.788;6.940;2023-04-29T02:04:04;51.35;;;32.72;;
53207;SDS011;39093;52.788;6.940;2023-04-29T02:06:32;52.10;;;32.00;;
53207;SDS011;39093;52.788;6.940;2023-04-29T02:08:58;55.10;;;32.08;;
53207;SDS011;39093;52.788;6.940;2023-04-29T02:11:26;54.38;;;30.92;;
53207;SDS011;39093;52.788;6.940;2023-04-29T02:13:52;57.72;;;31.92;;
53207;SDS011;39093;52.788;6.940;2023-04-29T02:16:20;53.03;;;31.17;;
53207;SDS011;39093;52.788;6.940;2023-04-29T02:18:47;55.45;;;32.17;;
53207;SDS011;39093;52.788;6.940;2023-04-29T02:21:13;50.75;;;31.45;;
53207;SDS011;39093;52.788;6.940;2023-04-29T02:23:41;51.67;;;31.85;;
53207;SDS011;39093;52.788;6.940;2023-04-29T02:26:08;49.30;;;31.55;;
53207;SDS011;39093;52.788;6.940;2023-04-29T02:28:35;50.88;;;31.02;;
53207;SDS011;39093;52.788;6.940;2023-04-29T02:31:02;52.58;;;30.40;;
53207;SDS011;39093;52.788;6.940;2023-04-29T02:33:30;50.03;;;31.17;;
53207;SDS011;39093;52.788;6.940;2023-04-29T02:35:58;52.58;;;29.60;;
53207;SDS011;39093;52.788;6.940;2023-04-29T02:38:25;39.65;;;26.98;;
53207;SDS011;39093;52.788;6.940;2023-04-29T02:40:52;48.58;;;29.95;;
53207;SDS011;39093;52.788;6.940;2023-04-29T02:43:18;42.30;;;27.95;;
53207;SDS011;39093;52.788;6.940;2023-04-29T02:45:45;44.25;;;28.38;;
53207;SDS011;39093;52.788;6.940;2023-04-29T02:48:12;46.85;;;28.92;;
53207;SDS011;39093;52.788;6.940;2023-04-29T02:50:39;42.58;;;27.48;;
53207;SDS011;39093;52.788;6.940;2023-04-29T02:53:06;45.08;;;29.20;;
53207;SDS011;39093;52.788;6.940;2023-04-29T02:55:33;46.00;;;28.70;;
53207;SDS011;39093;52.788;6.940;2023-04-29T02:58:00;44.97;;;28.70;;
53207;SDS011;39093;52.788;6.940;2023-04-29T03:00:27;40.08;;;27.50;;
53207;SDS011;39093;52.788;6.940;2023-04-29T03:02:53;45.10;;;26.65;;
53207;SDS011;39093;52.788;6.940;2023-04-29T03:05:21;38.78;;;27.05;;
53207;SDS011;39093;52.788;6.940;2023-04-29T03:07:48;45.95;;;28.20;;
53207;SDS011;39093;52.788;6.940;2023-04-29T03:10:15;43.95;;;25.80;;
53207;SDS011;39093;52.788;6.940;2023-04-29T03:12:43;41.38;;;26.17;;
53207;SDS011;39093;52.788;6.940;2023-04-29T03:15:10;36.33;;;24.20;;
53207;SDS011;39093;52.788;6.940;2023-04-29T03:17:37;37.58;;;24.88;;
53207;SDS011;39093;52.788;6.940;2023-04-29T03:20:04;41.53;;;24.90;;
53207;SDS011;39093;52.788;6.940;2023-04-29T03:22:31;36.53;;;25.30;;
53207;SDS011;39093;52.788;6.940;2023-04-29T03:24:58;38.45;;;24.73;;
53207;SDS011;39093;52.788;6.940;2023-04-29T03:27:25;32.08;;;22.70;;
53207;SDS011;39093;52.788;6.940;2023-04-29T03:29:52;43.42;;;24.17;;
53207;SDS011;39093;52.788;6.940;2023-04-29T03:32:19;40.85;;;24.30;;
53207;SDS011;39093;52.788;6.940;2023-04-29T03:34:46;35.08;;;22.98;;
53207;SDS011;39093;52.788;6.940;2023-04-29T03:37:15;38.95;;;23.65;;
53207;SDS011;39093;52.788;6.940;2023-04-29T03:39:42;41.50;;;24.30;;
53207;SDS011;39093;52.788;6.940;2023-04-29T03:42:09;42.75;;;24.42;;
53207;SDS011;39093;52.788;6.940;2023-04-29T03:44:36;49.65;;;25.10;;
53207;SDS011;39093;52.788;6.940;2023-04-29T03:47:03;42.20;;;25.88;;
53207;SDS011;39093;52.788;6.940;2023-04-29T03:49:30;41.97;;;24.48;;
53207;SDS011;39093;52.788;6.940;2023-04-29T03:51:57;37.45;;;24.45;;
53207;SDS011;39093;52.788;6.940;2023-04-29T03:54:24;38.78;;;24.25;;
53207;SDS011;39093;52.788;6.940;2023-04-29T03:56:51;43.88;;;25.50;;
53207;SDS011;39093;52.788;6.940;2023-04-29T03:59:18;42.47;;;26.08;;
53207;SDS011;39093;52.788;6.940;2023-04-29T04:01:45;35.33;;;24.13;;
53207;SDS011;39093;52.788;6.940;2023-04-29T04:04:12;39.60;;;23.05;;
53207;SDS011;39093;52.788;6.940;2023-04-29T04:06:39;35.45;;;22.17;;
53207;SDS011;39093;52.788;6.940;2023-04-29T04:09:06;35.15;;;23.17;;
53207;SDS011;39093;52.788;6.940;2023-04-29T04:11:33;39.28;;;22.85;;
53207;SDS011;39093;52.788;6.940;2023-04-29T04:14:01;51.22;;;23.50;;
53207;SDS011;39093;52.788;6.940;2023-04-29T04:16:28;41.55;;;23.02;;
53207;SDS011;39093;52.788;6.940;2023-04-29T04:18:55;41.53;;;22.10;;
53207;SDS011;39093;52.788;6.940;2023-04-29T04:21:22;31.90;;;21.30;;
53207;SDS011;39093;52.788;6.940;2023-04-29T04:23:49;41.55;;;22.35;;
53207;SDS011;39093;52.788;6.940;2023-04-29T04:26:16;37.22;;;23.30;;
53207;SDS011;39093;52.788;6.940;2023-04-29T04:28:43;38.25;;;22.27;;
53207;SDS011;39093;52.788;6.940;2023-04-29T04:31:10;36.70;;;21.42;;
53207;SDS011;39093;52.788;6.940;2023-04-29T04:33:40;39.20;;;21.90;;
53207;SDS011;39093;52.788;6.940;2023-04-29T04:36:07;37.08;;;20.33;;
53207;SDS011;39093;52.788;6.940;2023-04-29T04:38:34;28.55;;;19.50;;
53207;SDS011;39093;52.788;6.940;2023-04-29T04:41:01;34.92;;;19.83;;
53207;SDS011;39093;52.788;6.940;2023-04-29T04:43:28;29.83;;;19.95;;
53207;SDS011;39093;52.788;6.940;2023-04-29T04:45:55;31.55;;;19.63;;
53207;SDS011;39093;52.788;6.940;2023-04-29T04:48:22;27.95;;;17.90;;
53207;SDS011;39093;52.788;6.940;2023-04-29T04:50:49;30.88;;;19.02;;
53207;SDS011;39093;52.788;6.940;2023-04-29T04:53:16;34.97;;;17.80;;
53207;SDS011;39093;52.788;6.940;2023-04-29T04:55:43;27.17;;;17.70;;
53207;SDS011;39093;52.788;6.940;2023-04-29T04:58:10;29.75;;;18.20;;
53207;SDS011;39093;52.788;6.940;2023-04-29T05:00:36;30.75;;;18.40;;
53207;SDS011;39093;52.788;6.940;2023-04-29T05:03:04;30.25;;;18.30;;
53207;SDS011;39093;52.788;6.940;2023-04-29T05:05:32;28.75;;;18.15;;
53207;SDS011;39093;52.788;6.940;2023-04-29T05:07:59;28.88;;;18.73;;
53207;SDS011;39093;52.788;6.940;2023-04-29T05:10:26;32.85;;;17.80;;
53207;SDS011;39093;52.788;6.940;2023-04-29T05:12:53;31.85;;;18.73;;
53207;SDS011;39093;52.788;6.940;2023-04-29T05:15:20;35.78;;;18.42;;
53207;SDS011;39093;52.788;6.940;2023-04-29T05:17:46;32.90;;;18.08;;
53207;SDS011;39093;52.788;6.940;2023-04-29T05:20:13;31.83;;;18.90;;
53207;SDS011;39093;52.788;6.940;2023-04-29T05:22:41;41.63;;;19.02;;
53207;SDS011;39093;52.788;6.940;2023-04-29T05:25:07;29.67;;;17.55;;
53207;SDS011;39093;52.788;6.940;2023-04-29T05:27:35;27.63;;;17.92;;
53207;SDS011;39093;52.788;6.940;2023-04-29T05:30:02;25.63;;;16.30;;
53207;SDS011;39093;52.788;6.940;2023-04-29T05:32:29;32.15;;;16.40;;
53207;SDS011;39093;52.788;6.940;2023-04-29T05:34:56;30.40;;;17.30;;
53207;SDS011;39093;52.788;6.940;2023-04-29T05:37:22;32.92;;;17.75;;
53207;SDS011;39093;52.788;6.940;2023-04-29T05:39:49;26.75;;;16.98;;
53207;SDS011;39093;52.788;6.940;2023-04-29T05:42:17;28.15;;;15.60;;
53207;SDS011;39093;52.788;6.940;2023-04-29T05:44:44;27.30;;;15.60;;
53207;SDS011;39093;52.788;6.940;2023-04-29T05:47:11;27.50;;;16.45;;
53207;SDS011;39093;52.788;6.940;2023-04-29T05:49:38;26.45;;;14.70;;
53207;SDS011;39093;52.788;6.940;2023-04-29T05:52:04;26.95;;;16.02;;
53207;SDS011;39093;52.788;6.940;2023-04-29T05:54:32;22.27;;;13.98;;
53207;SDS011;39093;52.788;6.940;2023-04-29T05:56:59;29.80;;;16.15;;
53207;SDS011;39093;52.788;6.940;2023-04-29T05:59:31;27.13;;;14.98;;
53207;SDS011;39093;52.788;6.940;2023-04-29T06:01:58;25.63;;;15.57;;
53207;SDS011;39093;52.788;6.940;2023-04-29T06:04:26;27.05;;;15.57;;
53207;SDS011;39093;52.788;6.940;2023-04-29T06:06:54;30.00;;;15.05;;
53207;SDS011;39093;52.788;6.940;2023-04-29T06:09:22;27.05;;;16.48;;
53207;SDS011;39093;52.788;6.940;2023-04-29T06:11:53;26.75;;;14.48;;
53207;SDS011;39093;52.788;6.940;2023-04-29T06:14:21;32.47;;;16.35;;
53207;SDS011;39093;52.788;6.940;2023-04-29T06:16:48;24.92;;;14.13;;
53207;SDS011;39093;52.788;6.940;2023-04-29T06:19:15;24.52;;;15.38;;
53207;SDS011;39093;52.788;6.940;2023-04-29T06:21:42;27.27;;;15.60;;
53207;SDS011;39093;52.788;6.940;2023-04-29T06:24:08;24.70;;;15.32;;
53207;SDS011;39093;52.788;6.940;2023-04-29T06:26:35;30.52;;;16.67;;
53207;SDS011;39093;52.788;6.940;2023-04-29T06:29:02;26.17;;;14.35;;
53207;SDS011;39093;52.788;6.940;2023-04-29T06:31:29;30.45;;;15.95;;
53207;SDS011;39093;52.788;6.940;2023-04-29T06:33:56;31.77;;;15.32;;
53207;SDS011;39093;52.788;6.940;2023-04-29T06:36:23;33.85;;;17.00;;
53207;SDS011;39093;52.788;6.940;2023-04-29T06:38:50;25.85;;;15.40;;
53207;SDS011;39093;52.788;6.940;2023-04-29T06:41:17;31.63;;;18.13;;
53207;SDS011;39093;52.788;6.940;2023-04-29T06:43:44;33.22;;;16.45;;
53207;SDS011;39093;52.788;6.940;2023-04-29T06:46:14;25.65;;;16.40;;
53207;SDS011;39093;52.788;6.940;2023-04-29T06:48:41;22.27;;;16.23;;
53207;SDS011;39093;52.788;6.940;2023-04-29T06:51:08;24.83;;;16.35;;
53207;SDS011;39093;52.788;6.940;2023-04-29T06:53:35;30.85;;;17.33;;
53207;SDS011;39093;52.788;6.940;2023-04-29T06:56:02;33.22;;;17.85;;
53207;SDS011;39093;52.788;6.940;2023-04-29T06:58:29;26.98;;;16.55;;
53207;SDS011;39093;52.788;6.940;2023-04-29T07:00:56;26.52;;;16.98;;
53207;SDS011;39093;52.788;6.940;2023-04-29T07:03:23;28.60;;;16.65;;
53207;SDS011;39093;52.788;6.940;2023-04-29T07:05:50;32.00;;;19.88;;
53207;SDS011;39093;52.788;6.940;2023-04-29T07:08:17;26.60;;;16.88;;
53207;SDS011;39093;52.788;6.940;2023-04-29T07:10:45;25.65;;;16.48;;
53207;SDS011;39093;52.788;6.940;2023-04-29T07:13:22;23.75;;;16.13;;
53207;SDS011;39093;52.788;6.940;2023-04-29T07:15:50;24.13;;;15.30;;
53207;SDS011;39093;52.788;6.940;2023-04-29T07:18:17;27.90;;;17.20;;
53207;SDS011;39093;52.788;6.940;2023-04-29T07:20:44;29.83;;;17.33;;
53207;SDS011;39093;52.788;6.940;2023-04-29T07:23:12;24.17;;;15.40;;
53207;SDS011;39093;52.788;6.940;2023-04-29T07:25:40;24.95;;;14.07;;
53207;SDS011;39093;52.788;6.940;2023-04-29T07:28:07;21.15;;;13.95;;
53207;SDS011;39093;52.788;6.940;2023-04-29T07:30:34;23.98;;;12.95;;
53207;SDS011;39093;52.788;6.940;2023-04-29T07:33:01;25.55;;;14.20;;
53207;SDS011;39093;52.788;6.940;2023-04-29T07:35:29;18.85;;;12.52;;
53207;SDS011;39093;52.788;6.940;2023-04-29T07:37:57;25.00;;;12.85;;
53207;SDS011;39093;52.788;6.940;2023-04-29T07:40:23;22.67;;;13.15;;
53207;SDS011;39093;52.788;6.940;2023-04-29T07:42:50;17.92;;;12.00;;
53207;SDS011;39093;52.788;6.940;2023-04-29T07:45:17;16.08;;;11.73;;
53207;SDS011;39093;52.788;6.940;2023-04-29T07:47:44;23.10;;;12.40;;
53207;SDS011;39093;52.788;6.940;2023-04-29T07:50:12;15.77;;;10.27;;
53207;SDS011;39093;52.788;6.940;2023-04-29T07:52:39;17.58;;;10.25;;
53207;SDS011;39093;52.788;6.940;2023-04-29T07:55:06;15.10;;;11.05;;
53207;SDS011;39093;52.788;6.940;2023-04-29T07:57:34;15.93;;;10.48;;
53207;SDS011;39093;52.788;6.940;2023-04-29T08:00:01;19.45;;;10.90;;
53207;SDS011;39093;52.788;6.940;2023-04-29T08:02:28;17.88;;;10.35;;
53207;SDS011;39093;52.788;6.940;2023-04-29T08:04:55;14.27;;;9.65;;
53207;SDS011;39093;52.788;6.940;2023-04-29T08:07:23;16.48;;;10.70;;
53207;SDS011;39093;52.788;6.940;2023-04-29T08:09:50;14.73;;;10.00;;
53207;SDS011;39093;52.788;6.940;2023-04-29T08:12:16;14.43;;;10.07;;
53207;SDS011;39093;52.788;6.940;2023-04-29T08:14:43;14.80;;;10.02;;
53207;SDS011;39093;52.788;6.940;2023-04-29T08:17:11;18.23;;;9.85;;
53207;SDS011;39093;52.788;6.940;2023-04-29T08:19:38;15.30;;;10.80;;
53207;SDS011;39093;52.788;6.940;2023-04-29T08:22:04;20.67;;;9.75;;
53207;SDS011;39093;52.788;6.940;2023-04-29T08:24:31;12.90;;;9.38;;
53207;SDS011;39093;52.788;6.940;2023-04-29T08:27:00;14.38;;;8.50;;
53207;SDS011;39093;52.788;6.940;2023-04-29T08:29:27;11.98;;;9.30;;
53207;SDS011;39093;52.788;6.940;2023-04-29T08:31:58;10.30;;;8.02;;
53207;SDS011;39093;52.788;6.940;2023-04-29T08:34:25;13.07;;;8.50;;
53207;SDS011;39093;52.788;6.940;2023-04-29T08:36:52;11.10;;;8.45;;
53207;SDS011;39093;52.788;6.940;2023-04-29T08:39:19;15.38;;;7.38;;
53207;SDS011;39093;52.788;6.940;2023-04-29T08:41:45;11.02;;;7.40;;
53207;SDS011;39093;52.788;6.940;2023-04-29T08:44:17;11.65;;;7.32;;
53207;SDS011;39093;52.788;6.940;2023-04-29T08:46:44;12.35;;;8.23;;
53207;SDS011;39093;52.788;6.940;2023-04-29T08:49:12;14.55;;;8.65;;
53207;SDS011;39093;52.788;6.940;2023-04-29T08:51:39;16.27;;;7.65;;
53207;SDS011;39093;52.788;6.940;2023-04-29T08:54:06;9.55;;;6.93;;
53207;SDS011;39093;52.788;6.940;2023-04-29T08:56:33;12.07;;;8.00;;
53207;SDS011;39093;52.788;6.940;2023-04-29T08:59:00;10.15;;;7.88;;
53207;SDS011;39093;52.788;6.940;2023-04-29T09:01:28;15.52;;;7.32;;
53207;SDS011;39093;52.788;6.940;2023-04-29T09:04:46;9.48;;;6.70;;
53207;SDS011;39093;52.788;6.940;2023-04-29T09:06:51;8.85;;;6.90;;
53207;SDS011;39093;52.788;6.940;2023-04-29T09:09:21;11.55;;;7.25;;
53207;SDS011;39093;52.788;6.940;2023-04-29T09:11:50;11.70;;;7.10;;
53207;SDS011;39093;52.788;6.940;2023-04-29T09:14:17;9.43;;;6.68;;
53207;SDS011;39093;52.788;6.940;2023-04-29T09:16:45;12.82;;;7.05;;
53207;SDS011;39093;52.788;6.940;2023-04-29T09:19:29;11.65;;;6.75;;
53207;SDS011;39093;52.788;6.940;2023-04-29T09:21:57;10.00;;;6.55;;
53207;SDS011;39093;52.788;6.940;2023-04-29T09:24:25;8.32;;;5.80;;
53207;SDS011;39093;52.788;6.940;2023-04-29T09:26:53;12.57;;;7.25;;
53207;SDS011;39093;52.788;6.940;2023-04-29T09:29:20;12.98;;;6.95;;
53207;SDS011;39093;52.788;6.940;2023-04-29T09:31:48;8.80;;;6.22;;
53207;SDS011;39093;52.788;6.940;2023-04-29T09:34:15;12.18;;;5.88;;
53207;SDS011;39093;52.788;6.940;2023-04-29T09:39:12;7.07;;;5.53;;
53207;SDS011;39093;52.788;6.940;2023-04-29T09:44:24;9.77;;;6.18;;
53207;SDS011;39093;52.788;6.940;2023-04-29T09:49:30;11.23;;;6.00;;
53207;SDS011;39093;52.788;6.940;2023-04-29T09:51:58;9.27;;;6.35;;
53207;SDS011;39093;52.788;6.940;2023-04-29T09:54:27;8.55;;;5.57;;
53207;SDS011;39093;52.788;6.940;2023-04-29T09:56:55;7.55;;;5.60;;
53207;SDS011;39093;52.788;6.940;2023-04-29T09:59:24;10.43;;;5.95;;
53207;SDS011;39093;52.788;6.940;2023-04-29T10:01:53;11.05;;;6.45;;
53207;SDS011;39093;52.788;6.940;2023-04-29T10:04:22;9.30;;;5.60;;
53207;SDS011;39093;52.788;6.940;2023-04-29T10:06:51;9.20;;;6.72;;
53207;SDS011;39093;52.788;6.940;2023-04-29T10:09:21;10.63;;;6.35;;
53207;SDS011;39093;52.788;6.940;2023-04-29T10:11:52;11.00;;;6.67;;
53207;SDS011;39093;52.788;6.940;2023-04-29T10:14:20;10.60;;;5.45;;
53207;SDS011;39093;52.788;6.940;2023-04-29T10:16:49;8.27;;;5.22;;
53207;SDS011;39093;52.788;6.940;2023-04-29T10:19:39;8.55;;;5.32;;
53207;SDS011;39093;52.788;6.940;2023-04-29T10:22:16;13.15;;;6.70;;
53207;SDS011;39093;52.788;6.940;2023-04-29T10:24:48;7.65;;;5.97;;
53207;SDS011;39093;52.788;6.940;2023-04-29T10:27:15;7.72;;;5.10;;
53207;SDS011;39093;52.788;6.940;2023-04-29T10:29:43;9.23;;;5.60;;
53207;SDS011;39093;52.788;6.940;2023-04-29T10:32:11;6.53;;;4.78;;
53207;SDS011;39093;52.788;6.940;2023-04-29T10:34:39;10.25;;;5.85;;
53207;SDS011;39093;52.788;6.940;2023-04-29T10:37:10;7.03;;;5.40;;
53207;SDS011;39093;52.788;6.940;2023-04-29T10:42:19;8.38;;;5.30;;
53207;SDS011;39093;52.788;6.940;2023-04-29T10:45:15;7.82;;;5.50;;
53207;SDS011;39093;52.788;6.940;2023-04-29T10:50:32;8.73;;;5.32;;
53207;SDS011;39093;52.788;6.940;2023-04-29T10:53:03;10.90;;;5.75;;
53207;SDS011;39093;52.788;6.940;2023-04-29T10:55:31;8.80;;;5.55;;
53207;SDS011;39093;52.788;6.940;2023-04-29T10:58:02;9.13;;;5.75;;
53207;SDS011;39093;52.788;6.940;2023-04-29T11:00:31;13.13;;;5.70;;
53207;SDS011;39093;52.788;6.940;2023-04-29T11:03:00;10.55;;;5.13;;
53207;SDS011;39093;52.788;6.940;2023-04-29T11:05:32;8.85;;;5.50;;
53207;SDS011;39093;52.788;6.940;2023-04-29T11:08:11;8.27;;;6.30;;
53207;SDS011;39093;52.788;6.940;2023-04-29T11:10:49;8.93;;;5.43;;
53207;SDS011;39093;52.788;6.940;2023-04-29T11:13:29;8.73;;;5.70;;
53207;SDS011;39093;52.788;6.940;2023-04-29T11:16:09;11.30;;;6.07;;
53207;SDS011;39093;52.788;6.940;2023-04-29T11:21:32;8.98;;;5.75;;
53207;SDS011;39093;52.788;6.940;2023-04-29T11:24:00;9.93;;;5.90;;
53207;SDS011;39093;52.788;6.940;2023-04-29T11:26:28;10.70;;;5.78;;
53207;SDS011;39093;52.788;6.940;2023-04-29T11:28:55;9.38;;;6.13;;
53207;SDS011;39093;52.788;6.940;2023-04-29T11:31:31;10.20;;;5.72;;
53207;SDS011;39093;52.788;6.940;2023-04-29T11:33:59;6.88;;;4.55;;
53207;SDS011;39093;52.788;6.940;2023-04-29T11:36:26;7.07;;;5.25;;
53207;SDS011;39093;52.788;6.940;2023-04-29T11:38:53;5.22;;;4.55;;
53207;SDS011;39093;52.788;6.940;2023-04-29T11:41:21;7.68;;;4.55;;
53207;SDS011;39093;52.788;6.940;2023-04-29T11:43:58;5.25;;;4.20;;
53207;SDS011;39093;52.788;6.940;2023-04-29T11:46:30;9.30;;;4.60;;
53207;SDS011;39093;52.788;6.940;2023-04-29T11:48:57;8.23;;;4.05;;
53207;SDS011;39093;52.788;6.940;2023-04-29T11:51:25;6.88;;;3.88;;
53207;SDS011;39093;52.788;6.940;2023-04-29T11:53:54;7.80;;;3.90;;
53207;SDS011;39093;52.788;6.940;2023-04-29T11:56:23;4.40;;;3.70;;
53207;SDS011;39093;52.788;6.940;2023-04-29T11:58:54;8.25;;;4.28;;
53207;SDS011;39093;52.788;6.940;2023-04-29T12:01:24;8.55;;;4.32;;
53207;SDS011;39093;52.788;6.940;2023-04-29T12:03:55;7.80;;;4.53;;
53207;SDS011;39093;52.788;6.940;2023-04-29T12:06:28;5.13;;;4.28;;
53207;SDS011;39093;52.788;6.940;2023-04-29T12:08:57;8.27;;;4.75;;
53207;SDS011;39093;52.788;6.940;2023-04-29T12:11:25;10.38;;;4.82;;
53207;SDS011;39093;52.788;6.940;2023-04-29T12:13:53;6.90;;;4.38;;
53207;SDS011;39093;52.788;6.940;2023-04-29T12:16:20;6.53;;;4.60;;
53207;SDS011;39093;52.788;6.940;2023-04-29T12:18:49;9.05;;;4.70;;
53207;SDS011;39093;52.788;6.940;2023-04-29T12:21:18;5.65;;;4.30;;
53207;SDS011;39093;52.788;6.940;2023-04-29T12:23:47;7.43;;;4.00;;
53207;SDS011;39093;52.788;6.940;2023-04-29T12:26:14;7.25;;;3.95;;
53207;SDS011;39093;52.788;6.940;2023-04-29T12:28:41;6.82;;;3.97;;
53207;SDS011;39093;52.788;6.940;2023-04-29T12:31:08;5.95;;;3.50;;
53207;SDS011;39093;52.788;6.940;2023-04-29T12:33:40;6.72;;;3.83;;
53207;SDS011;39093;52.788;6.940;2023-04-29T12:36:15;7.32;;;4.03;;
53207;SDS011;39093;52.788;6.940;2023-04-29T12:38:46;7.65;;;3.80;;
53207;SDS011;39093;52.788;6.940;2023-04-29T12:41:14;6.32;;;3.30;;
53207;SDS011;39093;52.788;6.940;2023-04-29T12:43:42;6.63;;;3.75;;
53207;SDS011;39093;52.788;6.940;2023-04-29T12:46:10;5.30;;;3.60;;
53207;SDS011;39093;52.788;6.940;2023-04-29T12:48:39;6.07;;;4.15;;
53207;SDS011;39093;52.788;6.940;2023-04-29T12:51:07;5.13;;;3.45;;
53207;SDS011;39093;52.788;6.940;2023-04-29T12:53:35;9.63;;;3.80;;
53207;SDS011;39093;52.788;6.940;2023-04-29T12:56:02;6.75;;;3.75;;
53207;SDS011;39093;52.788;6.940;2023-04-29T12:58:30;6.10;;;3.67;;
53207;SDS011;39093;52.788;6.940;2023-04-29T13:00:59;9.05;;;3.10;;
53207;SDS011;39093;52.788;6.940;2023-04-29T13:03:26;4.68;;;3.67;;
53207;SDS011;39093;52.788;6.940;2023-04-29T13:05:57;5.25;;;3.03;;
53207;SDS011;39093;52.788;6.940;2023-04-29T13:08:24;6.53;;;3.30;;
53207;SDS011;39093;52.788;6.940;2023-04-29T13:10:51;6.15;;;3.47;;
53207;SDS011;39093;52.788;6.940;2023-04-29T13:13:19;5.15;;;2.95;;
53207;SDS011;39093;52.788;6.940;2023-04-29T13:15:48;7.88;;;3.13;;
53207;SDS011;39093;52.788;6.940;2023-04-29T13:18:15;5.82;;;2.92;;
53207;SDS011;39093;52.788;6.940;2023-04-29T13:20:43;9.02;;;3.00;;
53207;SDS011;39093;52.788;6.940;2023-04-29T13:23:10;6.38;;;2.63;;
53207;SDS011;39093;52.788;6.940;2023-04-29T13:25:37;4.50;;;2.03;;
53207;SDS011;39093;52.788;6.940;2023-04-29T13:28:04;4.90;;;1.80;;
53207;SDS011;39093;52.788;6.940;2023-04-29T13:30:32;6.60;;;2.17;;
53207;SDS011;39093;52.788;6.940;2023-04-29T13:33:00;2.70;;;1.90;;
53207;SDS011;39093;52.788;6.940;2023-04-29T13:35:37;6.07;;;1.65;;
53207;SDS011;39093;52.788;6.940;2023-04-29T13:38:26;5.88;;;2.20;;
53207;SDS011;39093;52.788;6.940;2023-04-29T13:40:56;4.28;;;2.10;;
53207;SDS011;39093;52.788;6.940;2023-04-29T13:46:43;3.72;;;1.90;;
53207;SDS011;39093;52.788;6.940;2023-04-29T13:53:54;3.22;;;2.08;;
53207;SDS011;39093;52.788;6.940;2023-04-29T13:57:07;3.08;;;2.10;;
53207;SDS011;39093;52.788;6.940;2023-04-29T14:14:45;3.30;;;1.80;;
53207;SDS011;39093;52.788;6.940;2023-04-29T14:21:00;3.03;;;2.17;;
53207;SDS011;39093;52.788;6.940;2023-04-29T14:23:36;3.63;;;1.92;;
53207;SDS011;39093;52.788;6.940;2023-04-29T14:26:31;4.05;;;2.20;;
53207;SDS011;39093;52.788;6.940;2023-04-29T14:29:38;4.85;;;1.98;;
53207;SDS011;39093;52.788;6.940;2023-04-29T14:36:17;2.80;;;1.60;;
53207;SDS011;39093;52.788;6.940;2023-04-29T14:39:37;3.55;;;1.10;;
53207;SDS011;39093;52.788;6.940;2023-04-29T14:42:53;3.85;;;1.13;;
53207;SDS011;39093;52.788;6.940;2023-04-29T14:49:11;4.72;;;2.42;;
53207;SDS011;39093;52.788;6.940;2023-04-29T14:52:29;12.05;;;3.58;;
53207;SDS011;39093;52.788;6.940;2023-04-29T14:59:25;2.15;;;1.38;;
53207;SDS011;39093;52.788;6.940;2023-04-29T15:02:43;4.47;;;1.48;;
53207;SDS011;39093;52.788;6.940;2023-04-29T15:09:04;5.35;;;1.60;;
53207;SDS011;39093;52.788;6.940;2023-04-29T15:12:06;2.05;;;1.20;;
53207;SDS011;39093;52.788;6.940;2023-04-29T15:22:23;4.45;;;1.17;;
53207;SDS011;39093;52.788;6.940;2023-04-29T15:32:26;3.63;;;2.22;;
53207;SDS011;39093;52.788;6.940;2023-04-29T15:36:01;3.15;;;2.70;;
53207;SDS011;39093;52.788;6.940;2023-04-29T15:38:28;5.70;;;2.53;;
53207;SDS011;39093;52.788;6.940;2023-04-29T15:45:19;5.68;;;2.95;;
53207;SDS011;39093;52.788;6.940;2023-04-29T15:52:28;6.35;;;3.08;;
53207;SDS011;39093;52.788;6.940;2023-04-29T15:55:07;6.72;;;3.85;;
53207;SDS011;39093;52.788;6.940;2023-04-29T15:57:35;9.85;;;5.07;;
53207;SDS011;39093;52.788;6.940;2023-04-29T16:00:06;14.00;;;5.47;;
53207;SDS011;39093;52.788;6.940;2023-04-29T16:02:35;9.75;;;4.93;;
53207;SDS011;39093;52.788;6.940;2023-04-29T16:05:02;7.07;;;4.07;;
53207;SDS011;39093;52.788;6.940;2023-04-29T16:07:30;6.78;;;4.35;;
53207;SDS011;39093;52.788;6.940;2023-04-29T16:09:58;8.48;;;4.25;;
53207;SDS011;39093;52.788;6.940;2023-04-29T16:12:25;8.18;;;4.80;;
53207;SDS011;39093;52.788;6.940;2023-04-29T16:14:54;8.20;;;4.40;;
53207;SDS011;39093;52.788;6.940;2023-04-29T16:17:21;5.65;;;4.18;;
53207;SDS011;39093;52.788;6.940;2023-04-29T16:19:48;6.03;;;4.13;;
53207;SDS011;39093;52.788;6.940;2023-04-29T16:22:17;9.30;;;4.28;;